Terminal Aerodrome Forecast
Issued by NWS

Home | Current Version | Previous Version | Text Only | Print | Product List | Glossary On
Versions: 1 2 3 4 5 6 7 8 9 10 11 12 13 14 15 16 17 18 19
926
FTUS44 KLZK 281738
TAFBPK
TAF
KBPK 281738Z 2818/2918 13006KT P6SM SCT040 SCT250
     FM290000 VRB03KT P6SM BKN250
      TEMPO 2910/2914 4SM BR
     FM291500 11005KT P6SM SCT035 BKN250=

USA.gov is the U.S. government's official web portal to all federal, state and local government web resources and services.